sensor_id;sensor_type;location;lat;lon;timestamp;pressure;altitude;pressure_sealevel;temperature;humidity
56038;BME280;41907;47.848;9.000;2023-03-03T00:02:00;95881.72;;;0.98;100.00
56038;BME280;41907;47.848;9.000;2023-03-03T00:04:25;95883.56;;;0.97;100.00
56038;BME280;41907;47.848;9.000;2023-03-03T00:06:51;95886.53;;;0.84;100.00
56038;BME280;41907;47.848;9.000;2023-03-03T00:09:16;95883.13;;;0.67;100.00
56038;BME280;41907;47.848;9.000;2023-03-03T00:11:41;95890.94;;;0.62;100.00
56038;BME280;41907;47.848;9.000;2023-03-03T00:14:21;95884.03;;;0.56;100.00
56038;BME280;41907;47.848;9.000;2023-03-03T00:16:47;95894.16;;;0.47;100.00
56038;BME280;41907;47.848;9.000;2023-03-03T00:19:16;95895.25;;;0.34;100.00
56038;BME280;41907;47.848;9.000;2023-03-03T00:21:45;95893.19;;;0.36;100.00
56038;BME280;41907;47.848;9.000;2023-03-03T00:24:36;95893.09;;;0.48;100.00
56038;BME280;41907;47.848;9.000;2023-03-03T00:27:16;95892.06;;;0.66;100.00
56038;BME280;41907;47.848;9.000;2023-03-03T00:29:49;95897.78;;;0.63;100.00
56038;BME280;41907;47.848;9.000;2023-03-03T00:32:30;95895.78;;;0.70;100.00
56038;BME280;41907;47.848;9.000;2023-03-03T00:35:27;95905.09;;;0.61;100.00
56038;BME280;41907;47.848;9.000;2023-03-03T00:37:56;95900.19;;;0.64;100.00
56038;BME280;41907;47.848;9.000;2023-03-03T00:43:00;95891.66;;;0.74;100.00
56038;BME280;41907;47.848;9.000;2023-03-03T00:45:33;95887.25;;;0.80;100.00
56038;BME280;41907;47.848;9.000;2023-03-03T00:48:22;95889.56;;;0.76;100.00
56038;BME280;41907;47.848;9.000;2023-03-03T00:50:48;95883.78;;;0.74;100.00
56038;BME280;41907;47.848;9.000;2023-03-03T00:53:15;95886.31;;;0.69;100.00
56038;BME280;41907;47.848;9.000;2023-03-03T00:55:45;95890.47;;;0.48;100.00
56038;BME280;41907;47.848;9.000;2023-03-03T00:58:12;95885.88;;;0.38;100.00
56038;BME280;41907;47.848;9.000;2023-03-03T01:00:38;95886.84;;;0.32;100.00
56038;BME280;41907;47.848;9.000;2023-03-03T01:03:07;95887.63;;;0.33;100.00
56038;BME280;41907;47.848;9.000;2023-03-03T01:05:32;95890.19;;;0.45;100.00
56038;BME280;41907;47.848;9.000;2023-03-03T01:07:58;95885.94;;;0.60;100.00
56038;BME280;41907;47.848;9.000;2023-03-03T01:10:25;95878.38;;;0.64;100.00
56038;BME280;41907;47.848;9.000;2023-03-03T01:12:52;95881.94;;;0.74;100.00
56038;BME280;41907;47.848;9.000;2023-03-03T01:15:17;95878.22;;;0.70;100.00
56038;BME280;41907;47.848;9.000;2023-03-03T01:17:43;95878.28;;;0.59;100.00
56038;BME280;41907;47.848;9.000;2023-03-03T01:20:11;95873.84;;;0.59;100.00
56038;BME280;41907;47.848;9.000;2023-03-03T01:22:36;95881.72;;;0.59;100.00
56038;BME280;41907;47.848;9.000;2023-03-03T01:25:02;95882.38;;;0.50;100.00
56038;BME280;41907;47.848;9.000;2023-03-03T01:27:29;95888.31;;;0.62;100.00
56038;BME280;41907;47.848;9.000;2023-03-03T01:29:54;95886.19;;;0.42;100.00
56038;BME280;41907;47.848;9.000;2023-03-03T01:32:21;95885.63;;;0.40;100.00
56038;BME280;41907;47.848;9.000;2023-03-03T01:34:46;95886.28;;;0.30;100.00
56038;BME280;41907;47.848;9.000;2023-03-03T01:37:12;95882.94;;;0.18;100.00
56038;BME280;41907;47.848;9.000;2023-03-03T01:39:37;95886.78;;;0.27;100.00
56038;BME280;41907;47.848;9.000;2023-03-03T01:42:03;95888.50;;;0.38;100.00
56038;BME280;41907;47.848;9.000;2023-03-03T01:44:28;95886.19;;;0.42;100.00
56038;BME280;41907;47.848;9.000;2023-03-03T01:49:48;95880.53;;;0.50;100.00
56038;BME280;41907;47.848;9.000;2023-03-03T01:52:24;95878.94;;;0.49;100.00
56038;BME280;41907;47.848;9.000;2023-03-03T01:55:17;95877.75;;;0.57;100.00
56038;BME280;41907;47.848;9.000;2023-03-03T01:57:45;95876.00;;;0.62;100.00
56038;BME280;41907;47.848;9.000;2023-03-03T02:00:13;95877.00;;;0.78;100.00
56038;BME280;41907;47.848;9.000;2023-03-03T02:02:40;95869.72;;;0.85;100.00
56038;BME280;41907;47.848;9.000;2023-03-03T02:05:07;95876.19;;;0.78;100.00
56038;BME280;41907;47.848;9.000;2023-03-03T02:07:34;95869.78;;;0.68;100.00
56038;BME280;41907;47.848;9.000;2023-03-03T02:15:21;95865.28;;;0.86;100.00
56038;BME280;41907;47.848;9.000;2023-03-03T02:17:49;95870.09;;;0.72;100.00
56038;BME280;41907;47.848;9.000;2023-03-03T02:23:06;95864.88;;;0.55;100.00
56038;BME280;41907;47.848;9.000;2023-03-03T02:26:30;95863.19;;;0.49;100.00
56038;BME280;41907;47.848;9.000;2023-03-03T02:28:37;95862.78;;;0.57;100.00
56038;BME280;41907;47.848;9.000;2023-03-03T02:31:07;95868.69;;;0.64;100.00
56038;BME280;41907;47.848;9.000;2023-03-03T02:33:36;95864.94;;;0.60;100.00
56038;BME280;41907;47.848;9.000;2023-03-03T02:36:01;95872.75;;;0.38;100.00
56038;BME280;41907;47.848;9.000;2023-03-03T02:38:37;95864.16;;;0.43;100.00
56038;BME280;41907;47.848;9.000;2023-03-03T02:41:26;95867.50;;;0.55;100.00
56038;BME280;41907;47.848;9.000;2023-03-03T02:44:20;95869.38;;;0.60;100.00
56038;BME280;41907;47.848;9.000;2023-03-03T02:46:48;95863.72;;;0.68;100.00
56038;BME280;41907;47.848;9.000;2023-03-03T02:49:16;95864.94;;;0.60;100.00
56038;BME280;41907;47.848;9.000;2023-03-03T02:51:42;95862.22;;;0.72;100.00
56038;BME280;41907;47.848;9.000;2023-03-03T02:54:10;95863.44;;;0.86;100.00
56038;BME280;41907;47.848;9.000;2023-03-03T02:56:36;95859.06;;;0.92;100.00
56038;BME280;41907;47.848;9.000;2023-03-03T02:59:03;95866.75;;;0.98;100.00
56038;BME280;41907;47.848;9.000;2023-03-03T03:01:29;95857.19;;;1.09;100.00
56038;BME280;41907;47.848;9.000;2023-03-03T03:03:56;95857.75;;;1.11;100.00
56038;BME280;41907;47.848;9.000;2023-03-03T03:06:22;95851.69;;;1.10;100.00
56038;BME280;41907;47.848;9.000;2023-03-03T03:08:48;95862.19;;;1.10;100.00
56038;BME280;41907;47.848;9.000;2023-03-03T03:11:13;95863.16;;;1.04;100.00
56038;BME280;41907;47.848;9.000;2023-03-03T03:13:38;95856.16;;;1.10;100.00
56038;BME280;41907;47.848;9.000;2023-03-03T03:16:04;95854.25;;;1.05;100.00
56038;BME280;41907;47.848;9.000;2023-03-03T03:18:30;95861.19;;;0.95;100.00
56038;BME280;41907;47.848;9.000;2023-03-03T03:20:55;95849.47;;;0.81;100.00
56038;BME280;41907;47.848;9.000;2023-03-03T03:23:20;95853.59;;;0.93;100.00
56038;BME280;41907;47.848;9.000;2023-03-03T03:25:46;95854.38;;;0.94;100.00
56038;BME280;41907;47.848;9.000;2023-03-03T03:28:13;95853.38;;;0.78;100.00
56038;BME280;41907;47.848;9.000;2023-03-03T03:30:40;95859.13;;;0.97;100.00
56038;BME280;41907;47.848;9.000;2023-03-03T03:33:05;95855.41;;;0.93;100.00
56038;BME280;41907;47.848;9.000;2023-03-03T03:35:35;95863.16;;;1.04;100.00
56038;BME280;41907;47.848;9.000;2023-03-03T03:38:00;95863.28;;;1.15;100.00
56038;BME280;41907;47.848;9.000;2023-03-03T03:40:26;95865.75;;;1.21;100.00
56038;BME280;41907;47.848;9.000;2023-03-03T03:42:52;95861.16;;;1.11;100.00
56038;BME280;41907;47.848;9.000;2023-03-03T03:45:17;95868.84;;;1.18;100.00
56038;BME280;41907;47.848;9.000;2023-03-03T03:47:43;95859.38;;;1.17;100.00
56038;BME280;41907;47.848;9.000;2023-03-03T03:50:09;95863.41;;;1.25;100.00
56038;BME280;41907;47.848;9.000;2023-03-03T03:52:35;95863.22;;;1.31;100.00
56038;BME280;41907;47.848;9.000;2023-03-03T03:55:00;95866.16;;;1.35;100.00
56038;BME280;41907;47.848;9.000;2023-03-03T03:57:26;95861.31;;;1.27;100.00
56038;BME280;41907;47.848;9.000;2023-03-03T03:59:52;95864.75;;;1.05;100.00
56038;BME280;41907;47.848;9.000;2023-03-03T04:02:17;95871.47;;;0.96;100.00
56038;BME280;41907;47.848;9.000;2023-03-03T04:04:43;95860.28;;;0.84;100.00
56038;BME280;41907;47.848;9.000;2023-03-03T04:07:08;95860.03;;;0.86;100.00
56038;BME280;41907;47.848;9.000;2023-03-03T04:09:33;95866.16;;;0.91;100.00
56038;BME280;41907;47.848;9.000;2023-03-03T04:11:59;95863.34;;;0.98;100.00
56038;BME280;41907;47.848;9.000;2023-03-03T04:14:24;95862.69;;;1.07;100.00
56038;BME280;41907;47.848;9.000;2023-03-03T04:16:49;95871.44;;;1.13;100.00
56038;BME280;41907;47.848;9.000;2023-03-03T04:19:15;95858.16;;;1.25;100.00
56038;BME280;41907;47.848;9.000;2023-03-03T04:21:40;95861.31;;;1.27;100.00
56038;BME280;41907;47.848;9.000;2023-03-03T04:24:06;95867.38;;;1.27;100.00
56038;BME280;41907;47.848;9.000;2023-03-03T04:26:31;95869.88;;;1.17;100.00
56038;BME280;41907;47.848;9.000;2023-03-03T04:28:57;95871.09;;;1.09;100.00
56038;BME280;41907;47.848;9.000;2023-03-03T04:31:24;95865.50;;;1.23;100.00
56038;BME280;41907;47.848;9.000;2023-03-03T04:33:50;95872.81;;;1.21;100.00
56038;BME280;41907;47.848;9.000;2023-03-03T04:36:16;95875.19;;;1.00;100.00
56038;BME280;41907;47.848;9.000;2023-03-03T04:38:41;95877.75;;;0.95;100.00
56038;BME280;41907;47.848;9.000;2023-03-03T04:41:07;95872.34;;;0.85;100.00
56038;BME280;41907;47.848;9.000;2023-03-03T04:43:32;95873.56;;;0.94;100.00
56038;BME280;41907;47.848;9.000;2023-03-03T04:45:57;95878.75;;;1.11;100.00
56038;BME280;41907;47.848;9.000;2023-03-03T04:48:23;95877.03;;;1.22;100.00
56038;BME280;41907;47.848;9.000;2023-03-03T04:50:48;95874.47;;;1.27;100.00
56038;BME280;41907;47.848;9.000;2023-03-03T04:53:13;95870.91;;;1.38;100.00
56038;BME280;41907;47.848;9.000;2023-03-03T04:55:39;95875.72;;;1.46;100.00
56038;BME280;41907;47.848;9.000;2023-03-03T04:58:04;95863.94;;;1.48;100.00
56038;BME280;41907;47.848;9.000;2023-03-03T05:00:30;95873.16;;;1.51;100.00
56038;BME280;41907;47.848;9.000;2023-03-03T05:02:56;95865.25;;;1.51;100.00
56038;BME280;41907;47.848;9.000;2023-03-03T05:05:22;95870.03;;;1.54;100.00
56038;BME280;41907;47.848;9.000;2023-03-03T05:07:47;95878.03;;;1.42;100.00
56038;BME280;41907;47.848;9.000;2023-03-03T05:10:12;95882.59;;;1.47;100.00
56038;BME280;41907;47.848;9.000;2023-03-03T05:12:38;95873.59;;;1.43;100.00
56038;BME280;41907;47.848;9.000;2023-03-03T05:15:04;95881.47;;;1.43;100.00
56038;BME280;41907;47.848;9.000;2023-03-03T05:17:30;95881.78;;;1.46;100.00
56038;BME280;41907;47.848;9.000;2023-03-03T05:19:55;95885.69;;;1.44;100.00
56038;BME280;41907;47.848;9.000;2023-03-03T05:22:21;95883.03;;;1.39;100.00
56038;BME280;41907;47.848;9.000;2023-03-03T05:24:47;95884.53;;;1.35;100.00
56038;BME280;41907;47.848;9.000;2023-03-03T05:27:14;95884.41;;;1.25;100.00
56038;BME280;41907;47.848;9.000;2023-03-03T05:29:39;95887.72;;;1.15;100.00
56038;BME280;41907;47.848;9.000;2023-03-03T05:32:04;95884.13;;;0.99;100.00
56038;BME280;41907;47.848;9.000;2023-03-03T05:34:30;95884.44;;;0.86;100.00
56038;BME280;41907;47.848;9.000;2023-03-03T05:36:55;95884.53;;;0.91;100.00
56038;BME280;41907;47.848;9.000;2023-03-03T05:39:20;95884.16;;;1.04;100.00
56038;BME280;41907;47.848;9.000;2023-03-03T05:41:46;95886.69;;;1.16;100.00
56038;BME280;41907;47.848;9.000;2023-03-03T05:44:11;95881.78;;;1.25;100.00
56038;BME280;41907;47.848;9.000;2023-03-03T05:46:37;95885.28;;;1.30;100.00
56038;BME280;41907;47.848;9.000;2023-03-03T05:49:02;95893.69;;;1.32;100.00
56038;BME280;41907;47.848;9.000;2023-03-03T05:51:27;95889.66;;;1.25;100.00
56038;BME280;41907;47.848;9.000;2023-03-03T05:53:53;95887.69;;;1.32;100.00
56038;BME280;41907;47.848;9.000;2023-03-03T05:56:18;95891.25;;;1.26;100.00
56038;BME280;41907;47.848;9.000;2023-03-03T05:58:44;95894.31;;;1.18;100.00
56038;BME280;41907;47.848;9.000;2023-03-03T06:01:10;95892.38;;;1.30;100.00
56038;BME280;41907;47.848;9.000;2023-03-03T06:03:35;95899.59;;;1.39;100.00
56038;BME280;41907;47.848;9.000;2023-03-03T06:06:01;95897.13;;;1.55;100.00
56038;BME280;41907;47.848;9.000;2023-03-03T06:08:26;95897.66;;;1.57;100.00
56038;BME280;41907;47.848;9.000;2023-03-03T06:10:52;95904.16;;;1.49;100.00
56038;BME280;41907;47.848;9.000;2023-03-03T06:13:17;95907.03;;;1.26;100.00
56038;BME280;41907;47.848;9.000;2023-03-03T06:15:42;95903.13;;;1.28;100.00
56038;BME280;41907;47.848;9.000;2023-03-03T06:18:08;95902.44;;;1.38;100.00
56038;BME280;41907;47.848;9.000;2023-03-03T06:20:33;95904.44;;;1.53;100.00
56038;BME280;41907;47.848;9.000;2023-03-03T06:22:59;95907.69;;;1.60;100.00
56038;BME280;41907;47.848;9.000;2023-03-03T06:25:25;95917.16;;;1.61;100.00
56038;BME280;41907;47.848;9.000;2023-03-03T06:27:50;95912.09;;;1.54;100.00
56038;BME280;41907;47.848;9.000;2023-03-03T06:30:16;95926.72;;;1.45;100.00
56038;BME280;41907;47.848;9.000;2023-03-03T06:32:43;95921.09;;;1.58;100.00
56038;BME280;41907;47.848;9.000;2023-03-03T06:35:08;95917.16;;;1.61;100.00
56038;BME280;41907;47.848;9.000;2023-03-03T06:37:34;95922.72;;;1.64;100.00
56038;BME280;41907;47.848;9.000;2023-03-03T06:39:59;95914.91;;;1.69;100.00
56038;BME280;41907;47.848;9.000;2023-03-03T06:42:24;95924.66;;;1.74;100.00
56038;BME280;41907;47.848;9.000;2023-03-03T06:44:50;95929.69;;;1.75;100.00
56038;BME280;41907;47.848;9.000;2023-03-03T06:47:15;95936.34;;;1.83;100.00
56038;BME280;41907;47.848;9.000;2023-03-03T06:49:41;95934.97;;;1.80;100.00
56038;BME280;41907;47.848;9.000;2023-03-03T06:52:19;95941.72;;;1.71;100.00
56038;BME280;41907;47.848;9.000;2023-03-03T06:54:45;95941.84;;;1.81;100.00
56038;BME280;41907;47.848;9.000;2023-03-03T06:57:17;95949.78;;;1.86;100.00
56038;BME280;41907;47.848;9.000;2023-03-03T06:59:46;95942.25;;;1.95;100.00
56038;BME280;41907;47.848;9.000;2023-03-03T07:02:16;95943.09;;;2.01;100.00
56038;BME280;41907;47.848;9.000;2023-03-03T07:04:42;95944.75;;;2.07;100.00
56038;BME280;41907;47.848;9.000;2023-03-03T07:07:16;95948.69;;;2.09;100.00
56038;BME280;41907;47.848;9.000;2023-03-03T07:09:47;95952.38;;;2.08;100.00
56038;BME280;41907;47.848;9.000;2023-03-03T07:12:17;95954.25;;;2.13;100.00
56038;BME280;41907;47.848;9.000;2023-03-03T07:14:45;95953.25;;;2.19;100.00
56038;BME280;41907;47.848;9.000;2023-03-03T07:17:17;95955.41;;;2.22;100.00
56038;BME280;41907;47.848;9.000;2023-03-03T07:19:44;95960.34;;;2.18;100.00
56038;BME280;41907;47.848;9.000;2023-03-03T07:24:38;95966.88;;;2.11;100.00
56038;BME280;41907;47.848;9.000;2023-03-03T07:29:29;95963.00;;;2.18;100.00
56038;BME280;41907;47.848;9.000;2023-03-03T07:31:57;95966.72;;;2.22;100.00
56038;BME280;41907;47.848;9.000;2023-03-03T07:34:30;95955.84;;;2.14;100.00
56038;BME280;41907;47.848;9.000;2023-03-03T07:37:01;95962.28;;;2.28;100.00
56038;BME280;41907;47.848;9.000;2023-03-03T07:39:37;95959.81;;;2.43;100.00
56038;BME280;41907;47.848;9.000;2023-03-03T07:42:23;95968.84;;;2.52;100.00
56038;BME280;41907;47.848;9.000;2023-03-03T07:44:56;95962.00;;;2.56;100.00
56038;BME280;41907;47.848;9.000;2023-03-03T07:47:32;95966.25;;;2.57;100.00
56038;BME280;41907;47.848;9.000;2023-03-03T07:50:06;95972.88;;;2.65;100.00
56038;BME280;41907;47.848;9.000;2023-03-03T07:55:20;95966.94;;;2.80;100.00
56038;BME280;41907;47.848;9.000;2023-03-03T07:57:49;95978.84;;;2.87;100.00
56038;BME280;41907;47.848;9.000;2023-03-03T08:03:02;95986.50;;;2.89;100.00
56038;BME280;41907;47.848;9.000;2023-03-03T08:05:30;95986.75;;;2.87;100.00
56038;BME280;41907;47.848;9.000;2023-03-03T08:18:39;95995.59;;;3.08;100.00
56038;BME280;41907;47.848;9.000;2023-03-03T08:21:14;96002.97;;;3.06;100.00
56038;BME280;41907;47.848;9.000;2023-03-03T08:23:40;95996.59;;;3.02;100.00
56038;BME280;41907;47.848;9.000;2023-03-03T08:26:05;95996.97;;;3.16;100.00
56038;BME280;41907;47.848;9.000;2023-03-03T08:28:31;95997.78;;;3.21;100.00
56038;BME280;41907;47.848;9.000;2023-03-03T08:30:56;96003.03;;;3.16;100.00
56038;BME280;41907;47.848;9.000;2023-03-03T08:33:22;96000.56;;;2.99;100.00
56038;BME280;41907;47.848;9.000;2023-03-03T08:35:48;95993.53;;;3.15;100.00
56038;BME280;41907;47.848;9.000;2023-03-03T08:38:15;95989.94;;;3.31;100.00
56038;BME280;41907;47.848;9.000;2023-03-03T08:40:41;95987.13;;;3.43;100.00
56038;BME280;41907;47.848;9.000;2023-03-03T08:43:07;95990.53;;;3.39;100.00
56038;BME280;41907;47.848;9.000;2023-03-03T08:45:33;95999.66;;;3.26;100.00
56038;BME280;41907;47.848;9.000;2023-03-03T08:47:58;95998.25;;;3.13;100.00
56038;BME280;41907;47.848;9.000;2023-03-03T08:50:24;96003.28;;;3.15;100.00
56038;BME280;41907;47.848;9.000;2023-03-03T08:52:50;96001.16;;;3.12;100.00
56038;BME280;41907;47.848;9.000;2023-03-03T08:55:15;95996.41;;;3.09;100.00
56038;BME280;41907;47.848;9.000;2023-03-03T08:57:41;95997.06;;;3.31;100.00
56038;BME280;41907;47.848;9.000;2023-03-03T09:00:08;95998.16;;;3.40;100.00
56038;BME280;41907;47.848;9.000;2023-03-03T09:02:34;95991.66;;;3.53;100.00
56038;BME280;41907;47.848;9.000;2023-03-03T09:05:00;95992.72;;;3.57;100.00
56038;BME280;41907;47.848;9.000;2023-03-03T09:07:25;95995.44;;;3.72;100.00
56038;BME280;41907;47.848;9.000;2023-03-03T09:09:51;95998.56;;;3.69;100.00
56038;BME280;41907;47.848;9.000;2023-03-03T09:12:18;96000.25;;;3.90;100.00
56038;BME280;41907;47.848;9.000;2023-03-03T09:14:46;95997.66;;;3.95;100.00
56038;BME280;41907;47.848;9.000;2023-03-03T09:17:32;96002.16;;;4.05;100.00
56038;BME280;41907;47.848;9.000;2023-03-03T09:20:01;96010.25;;;3.83;100.00
56038;BME280;41907;47.848;9.000;2023-03-03T09:22:36;96008.72;;;3.97;100.00
56038;BME280;41907;47.848;9.000;2023-03-03T09:25:17;96006.44;;;4.31;98.69
56038;BME280;41907;47.848;9.000;2023-03-03T09:27:45;96000.94;;;4.48;98.47
56038;BME280;41907;47.848;9.000;2023-03-03T09:32:51;96011.78;;;5.28;95.20
56038;BME280;41907;47.848;9.000;2023-03-03T09:37:54;96003.47;;;5.70;92.13
56038;BME280;41907;47.848;9.000;2023-03-03T09:43:18;96006.00;;;6.10;87.61
56038;BME280;41907;47.848;9.000;2023-03-03T09:45:55;96014.78;;;6.01;87.26
56038;BME280;41907;47.848;9.000;2023-03-03T09:48:45;96016.28;;;6.17;87.90
56038;BME280;41907;47.848;9.000;2023-03-03T09:51:18;96012.06;;;6.16;86.75
56038;BME280;41907;47.848;9.000;2023-03-03T09:56:14;96011.88;;;6.51;84.14
56038;BME280;41907;47.848;9.000;2023-03-03T10:01:46;96016.69;;;5.85;86.54
56038;BME280;41907;47.848;9.000;2023-03-03T10:12:27;96007.47;;;6.37;83.87
56038;BME280;41907;47.848;9.000;2023-03-03T10:18:00;96011.94;;;6.41;84.05
56038;BME280;41907;47.848;9.000;2023-03-03T10:20:42;96020.19;;;6.34;82.49
56038;BME280;41907;47.848;9.000;2023-03-03T10:23:41;96019.16;;;6.25;84.26
56038;BME280;41907;47.848;9.000;2023-03-03T10:26:24;96013.16;;;6.05;83.76
56038;BME280;41907;47.848;9.000;2023-03-03T10:29:04;96024.44;;;5.46;85.97
56038;BME280;41907;47.848;9.000;2023-03-03T10:32:34;96017.03;;;5.48;86.62
56038;BME280;41907;47.848;9.000;2023-03-03T10:41:25;96020.63;;;6.03;84.75
56038;BME280;41907;47.848;9.000;2023-03-03T10:55:30;96006.75;;;8.28;75.11
56038;BME280;41907;47.848;9.000;2023-03-03T11:15:25;96002.50;;;7.32;80.42
56038;BME280;41907;47.848;9.000;2023-03-03T11:18:02;95998.88;;;7.52;78.43
56038;BME280;41907;47.848;9.000;2023-03-03T11:20:48;95996.91;;;7.86;75.51
56038;BME280;41907;47.848;9.000;2023-03-03T11:32:31;95995.50;;;9.39;70.09
56038;BME280;41907;47.848;9.000;2023-03-03T11:35:18;95986.69;;;9.84;69.32
56038;BME280;41907;47.848;9.000;2023-03-03T11:42:47;95974.53;;;9.51;66.67
56038;BME280;41907;47.848;9.000;2023-03-03T11:45:44;95984.97;;;9.33;67.42
56038;BME280;41907;47.848;9.000;2023-03-03T11:48:20;95978.50;;;8.37;71.22
56038;BME280;41907;47.848;9.000;2023-03-03T11:54:26;95976.41;;;7.44;76.97
56038;BME280;41907;47.848;9.000;2023-03-03T11:57:16;95971.22;;;7.81;76.67
56038;BME280;41907;47.848;9.000;2023-03-03T11:59:50;95968.75;;;7.85;75.49
56038;BME280;41907;47.848;9.000;2023-03-03T12:05:14;95958.06;;;8.33;74.19
56038;BME280;41907;47.848;9.000;2023-03-03T12:07:47;95957.41;;;8.59;72.62
56038;BME280;41907;47.848;9.000;2023-03-03T12:10:26;95959.50;;;8.63;72.39
56038;BME280;41907;47.848;9.000;2023-03-03T12:13:07;95958.69;;;8.25;74.35
56038;BME280;41907;47.848;9.000;2023-03-03T12:15:44;95958.91;;;8.09;75.22
56038;BME280;41907;47.848;9.000;2023-03-03T12:18:36;95959.34;;;8.16;74.04
56038;BME280;41907;47.848;9.000;2023-03-03T12:26:53;95950.72;;;8.81;71.89
56038;BME280;41907;47.848;9.000;2023-03-03T12:34:30;95948.97;;;8.90;70.92
56038;BME280;41907;47.848;9.000;2023-03-03T12:37:19;95953.91;;;8.64;72.34
56038;BME280;41907;47.848;9.000;2023-03-03T12:45:08;95948.75;;;7.93;76.03
56038;BME280;41907;47.848;9.000;2023-03-03T12:50:33;95950.00;;;7.76;76.52
56038;BME280;41907;47.848;9.000;2023-03-03T12:53:32;95944.19;;;7.74;77.44
56038;BME280;41907;47.848;9.000;2023-03-03T12:56:07;95947.66;;;7.94;76.92
56038;BME280;41907;47.848;9.000;2023-03-03T13:01:25;95930.34;;;8.20;74.59
56038;BME280;41907;47.848;9.000;2023-03-03T13:04:12;95935.91;;;8.00;75.98
56038;BME280;41907;47.848;9.000;2023-03-03T13:14:44;95939.69;;;7.94;75.42
56038;BME280;41907;47.848;9.000;2023-03-03T13:20:00;95936.03;;;7.71;76.15
56038;BME280;41907;47.848;9.000;2023-03-03T13:27:55;95939.78;;;7.89;74.78
56038;BME280;41907;47.848;9.000;2023-03-03T13:30:26;95938.13;;;7.93;74.65
56038;BME280;41907;47.848;9.000;2023-03-03T13:33:17;95946.06;;;7.74;74.32
56038;BME280;41907;47.848;9.000;2023-03-03T13:35:53;95944.22;;;7.93;74.74
56038;BME280;41907;47.848;9.000;2023-03-03T13:38:29;95945.47;;;8.01;74.28
56038;BME280;41907;47.848;9.000;2023-03-03T13:43:49;95947.19;;;7.92;75.40
56038;BME280;41907;47.848;9.000;2023-03-03T13:46:39;95944.97;;;7.75;74.59
56038;BME280;41907;47.848;9.000;2023-03-03T14:05:17;95929.22;;;7.83;71.71
56038;BME280;41907;47.848;9.000;2023-03-03T14:10:46;95930.22;;;7.88;71.28
56038;BME280;41907;47.848;9.000;2023-03-03T14:19:36;95915.34;;;8.10;69.73
56038;BME280;41907;47.848;9.000;2023-03-03T14:27:34;95902.06;;;8.10;70.14
56038;BME280;41907;47.848;9.000;2023-03-03T14:35:39;95899.97;;;8.26;70.13
56038;BME280;41907;47.848;9.000;2023-03-03T14:38:16;95902.38;;;8.22;70.12
56038;BME280;41907;47.848;9.000;2023-03-03T14:40:44;95903.28;;;8.37;70.57
56038;BME280;41907;47.848;9.000;2023-03-03T14:43:32;95897.66;;;8.57;70.81
56038;BME280;41907;47.848;9.000;2023-03-03T14:48:53;95899.41;;;8.48;69.39
56038;BME280;41907;47.848;9.000;2023-03-03T14:51:24;95886.38;;;8.65;68.83
56038;BME280;41907;47.848;9.000;2023-03-03T14:53:51;95890.72;;;8.75;68.17
56038;BME280;41907;47.848;9.000;2023-03-03T14:56:21;95889.22;;;8.69;68.75
56038;BME280;41907;47.848;9.000;2023-03-03T14:58:49;95893.97;;;8.72;69.54
56038;BME280;41907;47.848;9.000;2023-03-03T15:03:59;95893.72;;;8.68;69.50
56038;BME280;41907;47.848;9.000;2023-03-03T15:06:39;95885.97;;;8.72;68.84
56038;BME280;41907;47.848;9.000;2023-03-03T15:11:45;95889.25;;;8.82;68.74
56038;BME280;41907;47.848;9.000;2023-03-03T15:14:14;95886.88;;;8.67;68.52
56038;BME280;41907;47.848;9.000;2023-03-03T15:16:42;95890.59;;;8.66;68.52
56038;BME280;41907;47.848;9.000;2023-03-03T15:22:19;95886.97;;;8.43;69.61
56038;BME280;41907;47.848;9.000;2023-03-03T15:24:58;95887.03;;;8.19;70.24
56038;BME280;41907;47.848;9.000;2023-03-03T15:27:35;95881.88;;;8.09;70.52
56038;BME280;41907;47.848;9.000;2023-03-03T15:32:48;95889.47;;;7.97;71.42
56038;BME280;41907;47.848;9.000;2023-03-03T15:35:46;95890.19;;;8.03;71.70
56038;BME280;41907;47.848;9.000;2023-03-03T15:41:18;95889.09;;;8.22;72.03
56038;BME280;41907;47.848;9.000;2023-03-03T15:43:57;95889.31;;;8.26;71.30
56038;BME280;41907;47.848;9.000;2023-03-03T15:46:40;95893.06;;;8.25;71.57
56038;BME280;41907;47.848;9.000;2023-03-03T15:52:15;95898.97;;;8.41;71.40
56038;BME280;41907;47.848;9.000;2023-03-03T16:03:13;95908.25;;;7.63;77.24
56038;BME280;41907;47.848;9.000;2023-03-03T16:05:54;95902.19;;;7.58;77.78
56038;BME280;41907;47.848;9.000;2023-03-03T16:11:20;95909.31;;;7.38;78.90
56038;BME280;41907;47.848;9.000;2023-03-03T16:16:56;95907.50;;;7.34;79.94
56038;BME280;41907;47.848;9.000;2023-03-03T16:19:38;95913.38;;;7.31;78.93
56038;BME280;41907;47.848;9.000;2023-03-03T16:22:21;95923.63;;;7.37;79.63
56038;BME280;41907;47.848;9.000;2023-03-03T16:28:05;95928.66;;;7.39;78.64
56038;BME280;41907;47.848;9.000;2023-03-03T16:39:05;95931.44;;;7.00;80.95
56038;BME280;41907;47.848;9.000;2023-03-03T16:44:33;95933.97;;;6.86;81.81
56038;BME280;41907;47.848;9.000;2023-03-03T16:47:42;95946.66;;;6.89;82.36
56038;BME280;41907;47.848;9.000;2023-03-03T16:55:41;95946.91;;;6.93;83.01
56038;BME280;41907;47.848;9.000;2023-03-03T16:58:43;95947.41;;;6.95;83.96
56038;BME280;41907;47.848;9.000;2023-03-03T17:01:24;95953.53;;;6.90;85.22
56038;BME280;41907;47.848;9.000;2023-03-03T17:09:23;95957.78;;;6.57;87.01
56038;BME280;41907;47.848;9.000;2023-03-03T17:12:12;95964.41;;;6.55;88.72
56038;BME280;41907;47.848;9.000;2023-03-03T17:14:48;95972.97;;;6.47;90.38
56038;BME280;41907;47.848;9.000;2023-03-03T17:17:54;95966.06;;;6.46;91.11
56038;BME280;41907;47.848;9.000;2023-03-03T17:37:26;95991.53;;;5.82;96.08
56038;BME280;41907;47.848;9.000;2023-03-03T17:40:04;95997.41;;;5.74;96.15
56038;BME280;41907;47.848;9.000;2023-03-03T17:45:26;95999.47;;;5.77;95.54
56038;BME280;41907;47.848;9.000;2023-03-03T17:51:04;96015.34;;;5.82;94.72
56038;BME280;41907;47.848;9.000;2023-03-03T17:59:35;96019.84;;;5.77;94.81
56038;BME280;41907;47.848;9.000;2023-03-03T18:02:30;96030.72;;;5.80;94.69
56038;BME280;41907;47.848;9.000;2023-03-03T18:15:53;96031.81;;;5.64;96.30
56038;BME280;41907;47.848;9.000;2023-03-03T18:18:39;96032.09;;;5.63;96.26